createdAt,value
2023-01-06T00:01:35.389Z,7.68
2023-01-06T00:04:03.443Z,7.73
2023-01-06T00:06:31.749Z,7.72
2023-01-06T00:09:02.512Z,7.54
2023-01-06T00:11:31.106Z,7.67
2023-01-06T00:13:59.756Z,7.68
2023-01-06T00:16:27.281Z,7.71
2023-01-06T00:18:57.711Z,7.68
2023-01-06T00:21:25.842Z,7.66
2023-01-06T00:23:53.863Z,7.75
2023-01-06T00:26:22.026Z,7.78
2023-01-06T00:28:53.518Z,7.80
2023-01-06T00:31:21.722Z,7.78
2023-01-06T00:33:49.286Z,7.77
2023-01-06T00:36:16.791Z,7.70
2023-01-06T00:38:44.439Z,7.75
2023-01-06T00:41:32.591Z,7.53
2023-01-06T00:44:01.199Z,7.45
2023-01-06T00:46:30.944Z,7.66
2023-01-06T00:49:05.355Z,7.70
2023-01-06T00:51:36.458Z,7.68
2023-01-06T00:54:04.079Z,7.69
2023-01-06T00:56:32.091Z,7.74
2023-01-06T00:58:59.458Z,7.70
2023-01-06T01:01:27.020Z,7.78
2023-01-06T01:03:54.496Z,7.77
2023-01-06T01:06:21.934Z,7.64
2023-01-06T01:08:55.620Z,7.65
2023-01-06T01:11:42.374Z,7.63
2023-01-06T01:14:12.514Z,7.58
2023-01-06T01:16:40.235Z,7.42
2023-01-06T01:19:08.610Z,7.64
2023-01-06T01:21:35.995Z,7.66
2023-01-06T01:24:03.846Z,7.70
2023-01-06T01:26:31.487Z,7.72
2023-01-06T01:28:59.039Z,7.80
2023-01-06T01:31:26.735Z,7.65
2023-01-06T01:33:55.004Z,7.65
2023-01-06T01:36:22.595Z,7.60
2023-01-06T01:38:50.103Z,7.72
2023-01-06T01:41:22.620Z,7.67
2023-01-06T01:44:00.970Z,7.68
2023-01-06T01:46:31.078Z,7.63
2023-01-06T01:49:03.819Z,7.66
2023-01-06T01:51:36.413Z,7.57
2023-01-06T01:54:08.101Z,7.65
2023-01-06T01:56:36.628Z,7.68
2023-01-06T01:59:09.399Z,7.68
2023-01-06T02:01:36.920Z,7.72
2023-01-06T02:04:04.785Z,7.70
2023-01-06T02:06:32.482Z,7.64
2023-01-06T02:09:10.101Z,7.61
2023-01-06T02:11:41.914Z,7.68
2023-01-06T02:14:17.628Z,7.66
2023-01-06T02:16:54.109Z,7.64
2023-01-06T02:19:27.439Z,7.64
2023-01-06T02:22:13.519Z,7.52
2023-01-06T02:24:43.994Z,7.64
2023-01-06T02:27:29.579Z,7.74
2023-01-06T02:30:09.405Z,7.72
2023-01-06T02:33:00.256Z,7.74
2023-01-06T02:35:49.583Z,7.77
2023-01-06T02:38:35.030Z,7.74
2023-01-06T02:41:12.405Z,7.56
2023-01-06T02:43:55.700Z,7.68
2023-01-06T02:46:23.157Z,7.83
2023-01-06T02:48:50.589Z,7.77
2023-01-06T02:51:40.263Z,7.74
2023-01-06T02:54:26.205Z,7.66
2023-01-06T02:57:23.410Z,7.80
2023-01-06T03:00:15.388Z,7.78
2023-01-06T03:02:49.483Z,7.73
2023-01-06T03:05:17.631Z,7.64
2023-01-06T03:07:47.994Z,7.72
2023-01-06T03:10:20.147Z,7.77
2023-01-06T03:12:57.518Z,7.86
2023-01-06T03:15:25.677Z,7.87
2023-01-06T03:17:53.468Z,7.88
2023-01-06T03:20:21.130Z,7.90
2023-01-06T03:22:48.664Z,7.81
2023-01-06T03:25:16.781Z,7.87
2023-01-06T03:27:44.796Z,7.87
2023-01-06T03:30:12.919Z,7.84
2023-01-06T03:32:47.556Z,7.82
2023-01-06T03:35:28.252Z,7.75
2023-01-06T03:38:15.405Z,7.72
2023-01-06T03:41:21.941Z,7.73
2023-01-06T03:43:59.179Z,7.80
2023-01-06T03:46:36.037Z,7.69
2023-01-06T03:49:03.358Z,7.80
2023-01-06T03:51:55.311Z,7.72
2023-01-06T03:55:15.462Z,7.85
2023-01-06T03:57:51.126Z,7.65
2023-01-06T04:00:31.818Z,7.83
2023-01-06T04:03:09.417Z,7.74
2023-01-06T04:05:37.830Z,7.68
2023-01-06T04:08:06.040Z,7.74
2023-01-06T04:10:33.524Z,7.78
2023-01-06T04:13:01.498Z,7.78
2023-01-06T04:15:32.667Z,7.75
2023-01-06T04:18:02.360Z,7.74
2023-01-06T04:20:32.656Z,7.77
2023-01-06T04:23:14.247Z,7.77
2023-01-06T04:25:44.778Z,7.75
2023-01-06T04:28:19.991Z,7.70
2023-01-06T04:30:50.239Z,7.72
2023-01-06T04:33:18.099Z,7.54
2023-01-06T04:35:48.285Z,7.68
2023-01-06T04:38:19.072Z,7.65
2023-01-06T04:40:46.691Z,7.72
2023-01-06T04:43:16.289Z,7.50
2023-01-06T04:45:44.693Z,7.51
2023-01-06T04:48:12.901Z,7.57
2023-01-06T04:50:40.622Z,7.47
2023-01-06T04:53:09.957Z,7.52
2023-01-06T04:55:59.162Z,7.54
2023-01-06T04:58:26.581Z,7.57
2023-01-06T05:00:59.986Z,7.59
2023-01-06T05:03:27.480Z,7.47
2023-01-06T05:05:54.898Z,7.35
2023-01-06T05:08:22.219Z,7.43
2023-01-06T05:10:49.645Z,7.41
2023-01-06T05:13:16.969Z,7.46
2023-01-06T05:15:44.334Z,7.39
2023-01-06T05:18:12.143Z,7.45
2023-01-06T05:20:39.559Z,7.46
2023-01-06T05:23:06.879Z,7.37
2023-01-06T05:25:34.294Z,7.40
2023-01-06T05:28:01.693Z,7.39
2023-01-06T05:30:29.067Z,7.39
2023-01-06T05:32:56.478Z,7.37
2023-01-06T05:35:23.859Z,7.41
2023-01-06T05:37:54.581Z,7.30
2023-01-06T05:40:21.906Z,7.30
2023-01-06T05:42:49.242Z,7.33
2023-01-06T05:45:16.757Z,7.45
2023-01-06T05:47:44.530Z,7.40
2023-01-06T05:50:12.170Z,7.39
2023-01-06T05:52:39.698Z,7.37
2023-01-06T05:55:07.762Z,7.40
2023-01-06T05:57:36.726Z,7.47
2023-01-06T06:00:05.828Z,7.50
2023-01-06T06:02:39.811Z,7.46
2023-01-06T06:05:07.514Z,7.50
2023-01-06T06:07:34.977Z,7.41
2023-01-06T06:10:02.697Z,7.36
2023-01-06T06:12:30.168Z,7.30
2023-01-06T06:14:57.571Z,7.40
2023-01-06T06:17:25.413Z,7.34
2023-01-06T06:19:52.851Z,7.36
2023-01-06T06:22:20.314Z,7.44
2023-01-06T06:24:47.742Z,7.35
2023-01-06T06:27:15.351Z,7.19
2023-01-06T06:29:42.799Z,7.32
2023-01-06T06:32:10.223Z,7.11
2023-01-06T06:34:37.835Z,7.23
2023-01-06T06:37:05.513Z,7.31
2023-01-06T06:39:32.896Z,7.34
2023-01-06T06:42:02.844Z,7.42
2023-01-06T06:44:30.237Z,7.34
2023-01-06T06:46:58.662Z,7.49
2023-01-06T06:49:26.011Z,7.51
2023-01-06T06:51:55.392Z,7.49
2023-01-06T06:54:23.085Z,7.52
2023-01-06T06:56:50.585Z,7.55
2023-01-06T06:59:17.995Z,7.61
2023-01-06T07:01:45.501Z,7.57
2023-01-06T07:04:13.151Z,7.55
2023-01-06T07:06:40.759Z,7.64
2023-01-06T07:09:08.178Z,7.72
2023-01-06T07:11:35.606Z,7.62
2023-01-06T07:14:02.999Z,7.68
2023-01-06T07:16:30.972Z,7.71
2023-01-06T07:18:58.355Z,7.78
2023-01-06T07:21:25.771Z,7.72
2023-01-06T07:23:53.087Z,7.72
2023-01-06T07:26:20.470Z,7.77
2023-01-06T07:28:47.884Z,7.69
2023-01-06T07:31:15.395Z,7.81
2023-01-06T07:33:42.831Z,7.78
2023-01-06T07:36:10.329Z,7.79
2023-01-06T07:38:37.791Z,7.78
2023-01-06T07:41:05.220Z,7.76
2023-01-06T07:43:32.656Z,7.80
2023-01-06T07:46:00.049Z,7.91
2023-01-06T07:48:27.422Z,7.92
2023-01-06T07:50:54.884Z,7.93
2023-01-06T07:53:22.630Z,7.98
2023-01-06T07:55:54.008Z,7.93
2023-01-06T07:58:24.130Z,7.80
2023-01-06T08:00:52.287Z,7.92
2023-01-06T08:03:19.664Z,7.91
2023-01-06T08:05:47.107Z,7.92
2023-01-06T08:08:14.594Z,7.91
2023-01-06T08:10:42.917Z,7.96
2023-01-06T08:13:10.502Z,7.87
2023-01-06T08:15:38.635Z,7.93
2023-01-06T08:18:06.747Z,7.90
2023-01-06T08:20:34.799Z,7.90
2023-01-06T08:23:02.921Z,7.86
2023-01-06T08:25:30.592Z,7.85
2023-01-06T08:27:59.977Z,7.98
2023-01-06T08:30:27.896Z,8.00
2023-01-06T08:32:59.132Z,8.06
2023-01-06T08:35:27.397Z,8.04
2023-01-06T08:37:54.769Z,8.08
2023-01-06T08:40:22.298Z,8.09
2023-01-06T08:42:49.740Z,8.12
2023-01-06T08:45:17.182Z,8.04
2023-01-06T08:47:44.746Z,8.18
2023-01-06T08:50:12.249Z,8.17
2023-01-06T08:52:39.641Z,8.24
2023-01-06T08:55:07.199Z,8.24
2023-01-06T08:57:34.834Z,8.20
2023-01-06T09:00:04.407Z,8.23
2023-01-06T09:02:32.000Z,8.35
2023-01-06T09:04:59.520Z,8.29
2023-01-06T09:07:27.005Z,8.30
2023-01-06T09:09:54.442Z,8.23
2023-01-06T09:12:21.947Z,8.26
2023-01-06T09:14:49.320Z,8.38
2023-01-06T09:17:16.775Z,8.30
2023-01-06T09:19:44.246Z,8.33
2023-01-06T09:22:11.718Z,8.40
2023-01-06T09:24:39.123Z,8.48
2023-01-06T09:27:06.540Z,8.45
2023-01-06T09:29:33.971Z,8.48
2023-01-06T09:32:01.492Z,8.58
2023-01-06T09:34:29.283Z,8.58
2023-01-06T09:36:56.793Z,8.63
2023-01-06T09:39:24.267Z,8.64
2023-01-06T09:42:06.805Z,8.69
2023-01-06T09:44:42.350Z,8.64
2023-01-06T09:47:13.879Z,8.76
2023-01-06T09:49:51.198Z,8.76
2023-01-06T09:52:42.843Z,8.84
2023-01-06T09:55:37.871Z,8.95
2023-01-06T09:58:18.247Z,8.99
2023-01-06T10:00:48.993Z,8.98
2023-01-06T10:03:35.995Z,9.05
2023-01-06T10:06:45.750Z,9.04
2023-01-06T10:09:18.968Z,9.16
2023-01-06T10:12:07.823Z,9.21
2023-01-06T10:14:44.115Z,9.26
2023-01-06T10:17:20.407Z,9.32
2023-01-06T10:19:54.980Z,9.28
2023-01-06T10:22:37.594Z,9.34
2023-01-06T10:25:16.921Z,9.45
2023-01-06T10:27:59.826Z,9.49
2023-01-06T10:30:43.869Z,9.55
2023-01-06T10:33:23.809Z,9.48
2023-01-06T10:35:52.744Z,9.46
2023-01-06T10:38:27.283Z,9.48
2023-01-06T10:41:02.324Z,9.52
2023-01-06T10:43:30.142Z,9.63
2023-01-06T10:45:58.491Z,9.59
2023-01-06T10:48:30.382Z,9.63
2023-01-06T10:50:58.207Z,9.61
2023-01-06T10:53:26.182Z,9.62
2023-01-06T10:55:56.460Z,9.71
2023-01-06T10:58:55.839Z,9.66
2023-01-06T11:01:26.748Z,9.59
2023-01-06T11:04:12.186Z,9.61
2023-01-06T11:06:45.792Z,9.67
2023-01-06T11:09:43.343Z,9.63
2023-01-06T11:12:16.416Z,9.73
2023-01-06T11:14:55.728Z,9.71
2023-01-06T11:17:23.542Z,9.70
2023-01-06T11:20:28.785Z,9.75
2023-01-06T11:23:11.889Z,9.78
2023-01-06T11:25:39.341Z,9.73
2023-01-06T11:28:15.403Z,9.81
2023-01-06T11:30:52.912Z,9.88
2023-01-06T11:33:26.443Z,9.84
2023-01-06T11:35:55.122Z,9.91
2023-01-06T11:38:23.328Z,9.89
2023-01-06T11:40:52.624Z,9.96
2023-01-06T11:43:32.657Z,9.95
2023-01-06T11:46:07.254Z,10.08
2023-01-06T11:48:40.229Z,10.08
2023-01-06T11:51:09.454Z,10.11
2023-01-06T11:53:38.949Z,10.10
2023-01-06T11:56:18.130Z,10.04
2023-01-06T11:59:04.116Z,10.07
2023-01-06T12:01:45.167Z,10.10
2023-01-06T12:04:21.323Z,10.18
2023-01-06T12:06:50.452Z,10.04
2023-01-06T12:09:24.020Z,10.03
2023-01-06T12:11:55.887Z,10.06
2023-01-06T12:14:29.513Z,9.98
2023-01-06T12:17:16.032Z,10.00
2023-01-06T12:19:56.273Z,10.12
2023-01-06T12:22:44.817Z,9.99
2023-01-06T12:25:25.179Z,10.04
2023-01-06T12:27:57.524Z,10.05
2023-01-06T12:30:54.341Z,9.98
2023-01-06T12:33:33.904Z,10.04
2023-01-06T12:36:09.624Z,10.03
2023-01-06T12:38:52.743Z,10.03
2023-01-06T12:41:20.088Z,10.01
2023-01-06T12:43:57.490Z,10.10
2023-01-06T12:46:37.691Z,10.06
2023-01-06T12:49:18.126Z,10.12
2023-01-06T12:51:52.356Z,10.14
2023-01-06T12:54:31.265Z,10.16
2023-01-06T12:57:22.941Z,10.13
2023-01-06T13:00:03.798Z,10.09
2023-01-06T13:02:31.540Z,10.10
2023-01-06T13:05:20.312Z,10.16
2023-01-06T13:08:05.972Z,10.13
2023-01-06T13:10:51.678Z,10.22
2023-01-06T13:13:47.175Z,10.14
2023-01-06T13:16:30.377Z,10.01
2023-01-06T13:19:23.826Z,10.09
2023-01-06T13:21:54.007Z,10.06
2023-01-06T13:24:30.562Z,10.09
2023-01-06T13:27:06.037Z,10.12
2023-01-06T13:29:51.887Z,10.16
2023-01-06T13:32:40.092Z,10.11
2023-01-06T13:35:44.290Z,10.19
2023-01-06T13:38:33.124Z,10.19
2023-01-06T13:41:03.735Z,10.13
2023-01-06T13:43:33.911Z,10.16
2023-01-06T13:46:12.140Z,10.13
2023-01-06T13:48:43.603Z,10.22
2023-01-06T13:51:13.621Z,10.09
2023-01-06T13:53:43.848Z,10.11
2023-01-06T13:56:14.226Z,10.10
2023-01-06T13:58:46.253Z,10.20
2023-01-06T14:01:34.565Z,10.05
2023-01-06T14:04:32.798Z,9.97
2023-01-06T14:07:00.798Z,9.91
2023-01-06T14:09:28.921Z,9.90
2023-01-06T14:12:11.655Z,9.98
2023-01-06T14:14:39.466Z,10.00
2023-01-06T14:17:06.956Z,9.99
2023-01-06T14:19:38.066Z,10.08
2023-01-06T14:24:01.827Z,9.95
2023-01-06T14:27:01.335Z,9.96
2023-01-06T14:29:41.060Z,9.94
2023-01-06T14:32:10.776Z,9.83
2023-01-06T14:34:43.284Z,9.80
2023-01-06T14:37:16.003Z,9.87
2023-01-06T14:39:48.779Z,9.88
2023-01-06T14:42:21.147Z,9.81
2023-01-06T14:44:52.192Z,9.82
2023-01-06T14:47:45.969Z,9.82
2023-01-06T14:50:17.793Z,9.83
2023-01-06T14:52:55.014Z,9.81
2023-01-06T14:55:25.417Z,9.82
2023-01-06T14:57:52.836Z,9.87
2023-01-06T15:00:29.703Z,9.88
2023-01-06T15:03:00.249Z,9.84
2023-01-06T15:05:38.797Z,9.87
2023-01-06T15:08:15.967Z,9.81
2023-01-06T15:10:49.208Z,9.75
2023-01-06T15:13:31.082Z,9.73
2023-01-06T15:16:15.690Z,9.68
2023-01-06T15:18:44.736Z,9.73
2023-01-06T15:21:13.589Z,9.62
2023-01-06T15:23:50.942Z,9.66
2023-01-06T15:26:20.686Z,9.70
2023-01-06T15:29:04.778Z,9.73
2023-01-06T15:31:38.181Z,9.75
2023-01-06T15:34:17.514Z,9.78
2023-01-06T15:36:47.892Z,9.68
2023-01-06T15:39:21.937Z,9.72
2023-01-06T15:41:50.070Z,9.69
2023-01-06T15:44:22.175Z,9.65
2023-01-06T15:46:52.884Z,9.59
2023-01-06T15:49:31.563Z,9.65
2023-01-06T15:52:05.033Z,9.64
2023-01-06T15:54:36.654Z,9.60
2023-01-06T15:57:16.112Z,9.66
2023-01-06T16:00:21.303Z,9.67
2023-01-06T16:02:49.440Z,9.53
2023-01-06T16:05:36.703Z,9.40
2023-01-06T16:08:23.973Z,9.50
2023-01-06T16:11:11.894Z,9.49
2023-01-06T16:13:59.008Z,9.53
2023-01-06T16:16:36.953Z,9.54
2023-01-06T16:19:22.923Z,9.55
2023-01-06T16:21:54.664Z,9.57
2023-01-06T16:24:26.670Z,9.70
2023-01-06T16:27:05.846Z,9.55
2023-01-06T16:29:36.173Z,9.56
2023-01-06T16:32:25.536Z,9.53
2023-01-06T16:34:54.555Z,9.47
2023-01-06T16:37:21.995Z,9.51
2023-01-06T16:39:49.431Z,9.49
2023-01-06T16:42:39.506Z,9.49
2023-01-06T16:45:34.292Z,9.51
2023-01-06T16:48:01.808Z,9.62
2023-01-06T16:50:39.883Z,9.52
2023-01-06T16:53:10.095Z,9.47
2023-01-06T16:55:38.765Z,9.40
2023-01-06T16:58:16.080Z,9.43
2023-01-06T17:00:48.137Z,9.49
2023-01-06T17:03:18.722Z,9.49
2023-01-06T17:05:46.907Z,9.34
2023-01-06T17:08:15.954Z,9.35
2023-01-06T17:10:44.255Z,9.21
2023-01-06T17:13:34.715Z,9.25
2023-01-06T17:16:06.533Z,9.37
2023-01-06T17:18:34.189Z,9.36
2023-01-06T17:21:11.315Z,9.43
2023-01-06T17:23:51.075Z,9.38
2023-01-06T17:26:20.416Z,9.35
2023-01-06T17:28:49.927Z,9.33
2023-01-06T17:31:31.645Z,9.35
2023-01-06T17:34:02.547Z,9.37
2023-01-06T17:36:37.263Z,9.27
2023-01-06T17:39:17.972Z,9.26
2023-01-06T17:41:45.691Z,9.32
2023-01-06T17:44:18.259Z,9.26
2023-01-06T17:46:46.775Z,9.28
2023-01-06T17:49:20.336Z,9.27
2023-01-06T17:51:49.404Z,9.17
2023-01-06T17:54:37.594Z,9.29
2023-01-06T17:57:31.690Z,9.33
2023-01-06T17:59:59.083Z,9.33
2023-01-06T18:02:42.333Z,9.29
2023-01-06T18:05:24.689Z,9.29
2023-01-06T18:08:07.228Z,9.39
2023-01-06T18:10:37.029Z,9.42
2023-01-06T18:13:16.306Z,9.44
2023-01-06T18:15:46.478Z,9.38
2023-01-06T18:18:18.087Z,9.35
2023-01-06T18:21:14.673Z,9.36
2023-01-06T18:23:51.108Z,9.35
2023-01-06T18:26:38.641Z,9.29
2023-01-06T18:29:30.815Z,9.31
2023-01-06T18:32:21.231Z,9.28
2023-01-06T18:34:53.037Z,9.33
2023-01-06T18:37:25.326Z,9.34
2023-01-06T18:39:56.589Z,9.22
2023-01-06T18:42:32.965Z,9.31
2023-01-06T18:45:08.016Z,9.32
2023-01-06T18:47:40.198Z,9.35
2023-01-06T18:50:43.921Z,9.28
2023-01-06T18:53:22.467Z,9.31
2023-01-06T18:55:52.312Z,9.30
2023-01-06T18:58:49.559Z,9.33
2023-01-06T19:01:19.741Z,9.29
2023-01-06T19:03:47.179Z,9.32
2023-01-06T19:06:17.377Z,9.29
2023-01-06T19:08:50.689Z,9.28
2023-01-06T19:11:29.204Z,9.26
2023-01-06T19:14:02.014Z,9.23
2023-01-06T19:16:37.652Z,9.26
2023-01-06T19:19:08.234Z,9.30
2023-01-06T19:21:36.664Z,9.22
2023-01-06T19:24:27.011Z,9.25
2023-01-06T19:26:56.875Z,9.28
2023-01-06T19:29:28.059Z,9.22
2023-01-06T19:31:58.934Z,9.26
2023-01-06T19:34:26.928Z,9.28
2023-01-06T19:36:56.933Z,9.24
2023-01-06T19:39:27.889Z,9.31
2023-01-06T19:42:00.763Z,9.26
2023-01-06T19:44:35.682Z,9.11
2023-01-06T19:47:23.038Z,9.20
2023-01-06T19:49:53.814Z,9.13
2023-01-06T19:52:38.898Z,9.06
2023-01-06T19:55:27.350Z,9.01
2023-01-06T19:57:58.927Z,9.11
2023-01-06T20:00:55.768Z,9.06
2023-01-06T20:03:28.662Z,9.00
2023-01-06T20:05:56.191Z,9.19
2023-01-06T20:08:23.610Z,9.20
2023-01-06T20:10:51.004Z,9.15
2023-01-06T20:13:18.444Z,9.04
2023-01-06T20:15:45.812Z,9.04
2023-01-06T20:18:13.322Z,9.05
2023-01-06T20:20:40.817Z,9.20
2023-01-06T20:23:08.308Z,9.04
2023-01-06T20:25:35.849Z,8.99
2023-01-06T20:28:03.471Z,9.08
2023-01-06T20:30:30.892Z,9.09
2023-01-06T20:32:58.284Z,9.06
2023-01-06T20:35:25.726Z,9.04
2023-01-06T20:37:53.235Z,9.10
2023-01-06T20:40:20.842Z,9.18
2023-01-06T20:42:48.173Z,9.17
2023-01-06T20:45:15.627Z,9.17
2023-01-06T20:47:44.067Z,9.14
2023-01-06T20:50:14.540Z,9.14
2023-01-06T20:52:42.934Z,9.14
2023-01-06T20:55:10.438Z,9.15
2023-01-06T20:57:37.965Z,9.17
2023-01-06T21:00:07.880Z,9.13
2023-01-06T21:02:35.347Z,9.15
2023-01-06T21:05:03.115Z,9.16
2023-01-06T21:07:30.713Z,9.14
2023-01-06T21:09:58.122Z,9.16
2023-01-06T21:12:26.008Z,9.16
2023-01-06T21:14:53.375Z,9.20
2023-01-06T21:17:20.894Z,9.13
2023-01-06T21:19:48.535Z,9.11
2023-01-06T21:22:15.939Z,9.09
2023-01-06T21:24:43.308Z,9.06
2023-01-06T21:27:10.792Z,9.01
2023-01-06T21:29:38.234Z,9.07
2023-01-06T21:32:05.692Z,9.02
2023-01-06T21:34:33.080Z,9.09
2023-01-06T21:37:00.562Z,9.10
2023-01-06T21:39:27.980Z,9.10
2023-01-06T21:42:13.882Z,9.04
2023-01-06T21:44:41.270Z,9.08
2023-01-06T21:47:10.175Z,9.02
2023-01-06T21:49:39.083Z,9.05
2023-01-06T21:52:06.621Z,8.94
2023-01-06T21:54:34.402Z,8.98
2023-01-06T21:57:02.354Z,9.02
2023-01-06T21:59:30.123Z,9.00
2023-01-06T22:01:57.691Z,9.07
2023-01-06T22:04:25.145Z,9.07
2023-01-06T22:06:55.182Z,9.22
2023-01-06T22:09:23.481Z,9.14
2023-01-06T22:11:52.951Z,9.24
2023-01-06T22:14:20.547Z,9.16
2023-01-06T22:16:48.228Z,9.10
2023-01-06T22:19:16.614Z,8.99
2023-01-06T22:21:45.768Z,9.02
2023-01-06T22:24:17.249Z,9.03
2023-01-06T22:26:45.237Z,8.95
2023-01-06T22:29:12.768Z,9.02
2023-01-06T22:31:40.417Z,9.04
2023-01-06T22:34:07.917Z,9.06
2023-01-06T22:36:35.553Z,9.08
2023-01-06T22:39:03.414Z,9.06
2023-01-06T22:41:30.734Z,9.05
2023-01-06T22:43:58.148Z,9.03
2023-01-06T22:46:27.420Z,8.97
2023-01-06T22:48:54.933Z,9.03
2023-01-06T22:51:22.414Z,9.11
2023-01-06T22:53:49.842Z,9.10
2023-01-06T22:56:17.196Z,9.06
2023-01-06T22:58:44.589Z,9.08
2023-01-06T23:01:12.101Z,9.12
2023-01-06T23:03:39.572Z,9.08
2023-01-06T23:06:10.683Z,8.96
2023-01-06T23:08:48.087Z,8.97
2023-01-06T23:11:22.770Z,9.04
2023-01-06T23:13:55.418Z,9.05
2023-01-06T23:16:23.291Z,9.03
2023-01-06T23:18:50.776Z,9.02
2023-01-06T23:21:21.749Z,9.05
2023-01-06T23:23:50.599Z,8.96
2023-01-06T23:26:27.032Z,9.03
2023-01-06T23:28:55.637Z,9.07
2023-01-06T23:31:25.949Z,9.03
2023-01-06T23:33:56.146Z,9.03
2023-01-06T23:36:26.355Z,8.99
2023-01-06T23:38:55.594Z,9.04
2023-01-06T23:41:25.727Z,8.98
2023-01-06T23:43:54.492Z,9.03
2023-01-06T23:46:25.662Z,9.02
2023-01-06T23:48:53.493Z,9.02
2023-01-06T23:51:22.440Z,9.04
2023-01-06T23:53:50.247Z,9.06
2023-01-06T23:56:21.764Z,9.03
2023-01-06T23:58:52.915Z,9.06
